sensor_id;sensor_type;location;lat;lon;timestamp;pressure;altitude;pressure_sealevel;temperature;humidity
54978;BME280;40873;47.522;19.106;2023-04-09T00:01:06;100992.53;;;3.96;100.00
54978;BME280;40873;47.522;19.106;2023-04-09T00:03:34;100989.84;;;3.99;100.00
54978;BME280;40873;47.522;19.106;2023-04-09T00:06:03;100992.56;;;3.94;100.00
54978;BME280;40873;47.522;19.106;2023-04-09T00:08:30;101002.97;;;3.96;100.00
54978;BME280;40873;47.522;19.106;2023-04-09T00:10:58;101002.16;;;3.94;100.00
54978;BME280;40873;47.522;19.106;2023-04-09T00:13:25;100995.19;;;3.94;100.00
54978;BME280;40873;47.522;19.106;2023-04-09T00:16:05;100996.16;;;3.90;100.00
54978;BME280;40873;47.522;19.106;2023-04-09T00:18:32;100999.81;;;3.81;100.00
54978;BME280;40873;47.522;19.106;2023-04-09T00:20:59;100998.19;;;3.77;100.00
54978;BME280;40873;47.522;19.106;2023-04-09T00:23:26;100992.81;;;3.83;100.00
54978;BME280;40873;47.522;19.106;2023-04-09T00:25:53;100995.31;;;3.90;100.00
54978;BME280;40873;47.522;19.106;2023-04-09T00:28:20;100997.03;;;3.89;100.00
54978;BME280;40873;47.522;19.106;2023-04-09T00:30:47;100990.22;;;3.83;100.00
54978;BME280;40873;47.522;19.106;2023-04-09T00:33:14;100995.25;;;3.91;100.00
54978;BME280;40873;47.522;19.106;2023-04-09T00:35:42;100996.16;;;3.90;100.00
54978;BME280;40873;47.522;19.106;2023-04-09T00:38:08;100994.38;;;3.92;100.00
54978;BME280;40873;47.522;19.106;2023-04-09T00:40:36;100993.47;;;3.93;100.00
54978;BME280;40873;47.522;19.106;2023-04-09T00:43:03;100994.38;;;3.92;100.00
54978;BME280;40873;47.522;19.106;2023-04-09T00:45:30;100998.69;;;3.93;100.00
54978;BME280;40873;47.522;19.106;2023-04-09T00:47:57;100996.94;;;3.94;100.00
54978;BME280;40873;47.522;19.106;2023-04-09T00:50:24;100989.03;;;3.97;100.00
54978;BME280;40873;47.522;19.106;2023-04-09T00:52:51;100990.75;;;3.98;100.00
54978;BME280;40873;47.522;19.106;2023-04-09T00:55:20;100989.03;;;3.97;100.00
54978;BME280;40873;47.522;19.106;2023-04-09T00:57:47;100993.31;;;3.99;100.00
54978;BME280;40873;47.522;19.106;2023-04-09T01:00:14;100994.25;;;3.97;100.00
54978;BME280;40873;47.522;19.106;2023-04-09T01:02:41;100993.41;;;3.95;100.00
54978;BME280;40873;47.522;19.106;2023-04-09T01:05:10;100992.56;;;3.94;100.00
54978;BME280;40873;47.522;19.106;2023-04-09T01:08:00;100991.53;;;4.01;100.00
54978;BME280;40873;47.522;19.106;2023-04-09T01:13:18;100989.78;;;4.02;100.00
54978;BME280;40873;47.522;19.106;2023-04-09T01:15:55;100987.16;;;4.03;100.00
54978;BME280;40873;47.522;19.106;2023-04-09T01:18:51;100994.13;;;4.01;100.00
54978;BME280;40873;47.522;19.106;2023-04-09T01:21:25;100990.75;;;3.96;100.00
54978;BME280;40873;47.522;19.106;2023-04-09T01:24:13;100982.78;;;4.02;100.00
54978;BME280;40873;47.522;19.106;2023-04-09T01:27:06;100992.38;;;4.03;100.00
54978;BME280;40873;47.522;19.106;2023-04-09T01:29:38;100990.63;;;4.02;100.00
54978;BME280;40873;47.522;19.106;2023-04-09T01:32:07;100992.44;;;4.00;100.00
54978;BME280;40873;47.522;19.106;2023-04-09T01:34:35;100985.50;;;3.99;100.00
54978;BME280;40873;47.522;19.106;2023-04-09T01:37:02;100995.03;;;4.00;100.00
54978;BME280;40873;47.522;19.106;2023-04-09T01:39:30;100997.59;;;4.02;100.00
54978;BME280;40873;47.522;19.106;2023-04-09T01:41:57;100996.69;;;4.04;100.00
54978;BME280;40873;47.522;19.106;2023-04-09T01:44:25;100994.09;;;4.03;100.00
54978;BME280;40873;47.522;19.106;2023-04-09T01:46:54;100992.44;;;4.00;100.00
54978;BME280;40873;47.522;19.106;2023-04-09T01:49:22;100988.16;;;3.98;100.00
54978;BME280;40873;47.522;19.106;2023-04-09T01:51:49;100989.06;;;3.95;100.00
54978;BME280;40873;47.522;19.106;2023-04-09T01:54:16;100983.84;;;3.95;100.00
54978;BME280;40873;47.522;19.106;2023-04-09T01:56:45;100990.75;;;3.96;100.00
54978;BME280;40873;47.522;19.106;2023-04-09T01:59:13;100994.22;;;3.98;100.00
54978;BME280;40873;47.522;19.106;2023-04-09T02:01:51;100989.03;;;3.97;100.00
54978;BME280;40873;47.522;19.106;2023-04-09T02:04:22;100985.59;;;3.95;100.00
54978;BME280;40873;47.522;19.106;2023-04-09T02:09:47;100993.41;;;3.95;100.00
54978;BME280;40873;47.522;19.106;2023-04-09T02:12:16;100990.91;;;3.92;100.00
54978;BME280;40873;47.522;19.106;2023-04-09T02:14:50;100996.00;;;3.96;100.00
54978;BME280;40873;47.522;19.106;2023-04-09T02:17:17;100988.16;;;3.96;100.00
54978;BME280;40873;47.522;19.106;2023-04-09T02:19:45;100993.41;;;3.95;100.00
54978;BME280;40873;47.522;19.106;2023-04-09T02:22:14;100984.72;;;3.94;100.00
54978;BME280;40873;47.522;19.106;2023-04-09T02:24:41;100982.16;;;3.93;100.00
54978;BME280;40873;47.522;19.106;2023-04-09T02:27:08;100983.16;;;3.87;100.00
54978;BME280;40873;47.522;19.106;2023-04-09T02:29:35;100977.03;;;3.90;100.00
54978;BME280;40873;47.522;19.106;2023-04-09T02:32:02;100984.81;;;3.91;100.00
54978;BME280;40873;47.522;19.106;2023-04-09T02:34:29;100975.38;;;3.85;100.00
54978;BME280;40873;47.522;19.106;2023-04-09T02:36:56;100977.16;;;3.82;100.00
54978;BME280;40873;47.522;19.106;2023-04-09T02:39:23;100983.28;;;3.81;100.00
54978;BME280;40873;47.522;19.106;2023-04-09T02:41:50;100980.69;;;3.81;100.00
54978;BME280;40873;47.522;19.106;2023-04-09T02:44:16;100974.66;;;3.79;100.00
54978;BME280;40873;47.522;19.106;2023-04-09T02:46:46;100976.25;;;3.84;100.00
54978;BME280;40873;47.522;19.106;2023-04-09T02:49:13;100978.84;;;3.86;100.00
54978;BME280;40873;47.522;19.106;2023-04-09T02:51:40;100977.84;;;3.92;100.00
54978;BME280;40873;47.522;19.106;2023-04-09T02:54:07;100969.28;;;3.85;100.00
54978;BME280;40873;47.522;19.106;2023-04-09T02:56:34;100977.13;;;3.85;100.00
54978;BME280;40873;47.522;19.106;2023-04-09T02:59:01;100985.75;;;3.87;100.00
54978;BME280;40873;47.522;19.106;2023-04-09T03:01:28;100984.91;;;3.87;100.00
54978;BME280;40873;47.522;19.106;2023-04-09T03:03:55;100982.38;;;3.83;100.00
54978;BME280;40873;47.522;19.106;2023-04-09T03:06:22;100982.34;;;3.85;100.00
54978;BME280;40873;47.522;19.106;2023-04-09T03:08:49;100983.16;;;3.87;100.00
54978;BME280;40873;47.522;19.106;2023-04-09T03:11:16;100978.78;;;3.88;100.00
54978;BME280;40873;47.522;19.106;2023-04-09T03:13:46;100989.19;;;3.89;100.00
54978;BME280;40873;47.522;19.106;2023-04-09T03:16:13;100982.25;;;3.88;100.00
54978;BME280;40873;47.522;19.106;2023-04-09T03:18:40;100982.25;;;3.90;100.00
54978;BME280;40873;47.522;19.106;2023-04-09T03:21:08;100988.38;;;3.87;100.00
54978;BME280;40873;47.522;19.106;2023-04-09T03:23:34;100979.63;;;3.90;100.00
54978;BME280;40873;47.522;19.106;2023-04-09T03:26:04;100983.09;;;3.90;100.00
54978;BME280;40873;47.522;19.106;2023-04-09T03:28:31;100977.84;;;3.92;100.00
54978;BME280;40873;47.522;19.106;2023-04-09T03:30:58;100983.97;;;3.89;100.00
54978;BME280;40873;47.522;19.106;2023-04-09T03:33:25;100981.44;;;3.86;100.00
54978;BME280;40873;47.522;19.106;2023-04-09T03:35:52;100979.66;;;3.88;100.00
54978;BME280;40873;47.522;19.106;2023-04-09T03:38:19;100983.13;;;3.89;100.00
54978;BME280;40873;47.522;19.106;2023-04-09T03:40:47;100984.84;;;3.90;100.00
54978;BME280;40873;47.522;19.106;2023-04-09T03:43:13;100987.53;;;3.87;100.00
54978;BME280;40873;47.522;19.106;2023-04-09T03:45:41;100988.28;;;3.92;100.00
54978;BME280;40873;47.522;19.106;2023-04-09T03:48:07;100985.69;;;3.92;100.00
54978;BME280;40873;47.522;19.106;2023-04-09T03:50:38;100989.13;;;3.92;100.00
54978;BME280;40873;47.522;19.106;2023-04-09T03:53:06;100988.19;;;3.95;100.00
54978;BME280;40873;47.522;19.106;2023-04-09T03:55:34;100985.72;;;3.90;100.00
54978;BME280;40873;47.522;19.106;2023-04-09T03:58:01;100989.91;;;3.96;100.00
54978;BME280;40873;47.522;19.106;2023-04-09T04:00:28;100991.75;;;3.92;100.00
54978;BME280;40873;47.522;19.106;2023-04-09T04:02:55;100988.19;;;3.95;100.00
54978;BME280;40873;47.522;19.106;2023-04-09T04:05:23;100997.78;;;3.94;100.00
54978;BME280;40873;47.522;19.106;2023-04-09T04:07:51;100996.94;;;3.94;100.00
54978;BME280;40873;47.522;19.106;2023-04-09T04:10:18;100998.59;;;3.96;100.00
54978;BME280;40873;47.522;19.106;2023-04-09T04:12:45;100999.53;;;3.94;100.00
54978;BME280;40873;47.522;19.106;2023-04-09T04:15:13;100990.91;;;3.92;100.00
54978;BME280;40873;47.522;19.106;2023-04-09T04:17:39;100996.88;;;3.97;100.00
54978;BME280;40873;47.522;19.106;2023-04-09T04:20:07;100992.53;;;3.96;100.00
54978;BME280;40873;47.522;19.106;2023-04-09T04:22:34;100989.84;;;3.99;100.00
54978;BME280;40873;47.522;19.106;2023-04-09T04:25:03;100991.53;;;4.01;100.00
54978;BME280;40873;47.522;19.106;2023-04-09T04:27:30;100997.50;;;4.06;100.00
54978;BME280;40873;47.522;19.106;2023-04-09T04:29:57;101000.16;;;4.05;100.00
54978;BME280;40873;47.522;19.106;2023-04-09T04:32:25;101004.53;;;4.04;100.00
54978;BME280;40873;47.522;19.106;2023-04-09T04:34:53;101008.00;;;4.05;100.00
54978;BME280;40873;47.522;19.106;2023-04-09T04:37:20;101010.59;;;4.05;100.00
54978;BME280;40873;47.522;19.106;2023-04-09T04:39:47;101011.41;;;4.07;100.00
54978;BME280;40873;47.522;19.106;2023-04-09T04:42:14;101014.06;;;4.05;100.00
54978;BME280;40873;47.522;19.106;2023-04-09T04:44:43;101011.41;;;4.07;100.00
54978;BME280;40873;47.522;19.106;2023-04-09T04:47:09;101017.47;;;4.09;100.00
54978;BME280;40873;47.522;19.106;2023-04-09T04:49:36;101017.28;;;4.17;100.00
54978;BME280;40873;47.522;19.106;2023-04-09T04:52:04;101025.97;;;4.19;100.00
54978;BME280;40873;47.522;19.106;2023-04-09T04:54:32;101013.72;;;4.21;100.00
54978;BME280;40873;47.522;19.106;2023-04-09T04:56:59;101023.22;;;4.25;100.00
54978;BME280;40873;47.522;19.106;2023-04-09T04:59:27;101028.34;;;4.28;100.00
54978;BME280;40873;47.522;19.106;2023-04-09T05:01:54;101025.84;;;4.23;100.00
54978;BME280;40873;47.522;19.106;2023-04-09T05:04:22;101014.44;;;4.27;100.00
54978;BME280;40873;47.522;19.106;2023-04-09T05:06:48;101014.28;;;4.33;100.00
54978;BME280;40873;47.522;19.106;2023-04-09T05:09:16;101011.69;;;4.33;100.00
54978;BME280;40873;47.522;19.106;2023-04-09T05:11:42;101020.28;;;4.38;100.00
54978;BME280;40873;47.522;19.106;2023-04-09T05:14:09;101015.00;;;4.40;100.00
54978;BME280;40873;47.522;19.106;2023-04-09T05:16:38;101020.13;;;4.43;100.00
54978;BME280;40873;47.522;19.106;2023-04-09T05:19:06;101020.97;;;4.45;100.00
54978;BME280;40873;47.522;19.106;2023-04-09T05:21:33;101020.06;;;4.46;100.00
54978;BME280;40873;47.522;19.106;2023-04-09T05:24:00;101024.34;;;4.49;100.00
54978;BME280;40873;47.522;19.106;2023-04-09T05:26:27;101027.78;;;4.51;100.00
54978;BME280;40873;47.522;19.106;2023-04-09T05:28:54;101031.19;;;4.54;100.00
54978;BME280;40873;47.522;19.106;2023-04-09T05:31:22;101031.09;;;4.57;100.00
54978;BME280;40873;47.522;19.106;2023-04-09T05:33:49;101030.09;;;4.63;100.00
54978;BME280;40873;47.522;19.106;2023-04-09T05:36:17;101026.63;;;4.62;100.00
54978;BME280;40873;47.522;19.106;2023-04-09T05:38:47;101033.47;;;4.68;100.00
54978;BME280;40873;47.522;19.106;2023-04-09T05:41:14;101030.81;;;4.70;100.00
54978;BME280;40873;47.522;19.106;2023-04-09T05:43:41;101034.22;;;4.73;100.00
54978;BME280;40873;47.522;19.106;2023-04-09T05:46:08;101040.22;;;4.77;100.00
54978;BME280;40873;47.522;19.106;2023-04-09T05:48:36;101042.00;;;4.75;100.00
54978;BME280;40873;47.522;19.106;2023-04-09T05:51:02;101042.78;;;4.78;100.00
54978;BME280;40873;47.522;19.106;2023-04-09T05:53:30;101039.25;;;4.81;100.00
54978;BME280;40873;47.522;19.106;2023-04-09T05:55:57;101041.56;;;4.91;100.00
54978;BME280;40873;47.522;19.106;2023-04-09T05:58:24;101052.69;;;5.00;100.00
54978;BME280;40873;47.522;19.106;2023-04-09T06:00:51;101051.78;;;5.01;100.00
54978;BME280;40873;47.522;19.106;2023-04-09T06:03:19;101042.31;;;4.97;100.00
54978;BME280;40873;47.522;19.106;2023-04-09T06:05:46;101044.81;;;5.01;100.00
54978;BME280;40873;47.522;19.106;2023-04-09T06:08:14;101046.56;;;5.01;100.00
54978;BME280;40873;47.522;19.106;2023-04-09T06:10:41;101047.25;;;5.07;100.00
54978;BME280;40873;47.522;19.106;2023-04-09T06:13:09;101047.09;;;5.13;100.00
54978;BME280;40873;47.522;19.106;2023-04-09T06:15:37;101048.63;;;5.20;100.00
54978;BME280;40873;47.522;19.106;2023-04-09T06:18:04;101046.88;;;5.22;100.00
54978;BME280;40873;47.522;19.106;2023-04-09T06:20:32;101050.28;;;5.25;100.00
54978;BME280;40873;47.522;19.106;2023-04-09T06:22:59;101052.16;;;5.19;100.00
54978;BME280;40873;47.522;19.106;2023-04-09T06:25:29;101058.09;;;5.26;100.00
54978;BME280;40873;47.522;19.106;2023-04-09T06:27:56;101058.28;;;5.18;100.00
54978;BME280;40873;47.522;19.106;2023-04-09T06:30:23;101051.34;;;5.17;100.00
54978;BME280;40873;47.522;19.106;2023-04-09T06:32:50;101054.00;;;5.16;100.00
54978;BME280;40873;47.522;19.106;2023-04-09T06:35:20;101059.31;;;5.13;100.00
54978;BME280;40873;47.522;19.106;2023-04-09T06:37:48;101061.75;;;5.19;100.00
54978;BME280;40873;47.522;19.106;2023-04-09T06:40:14;101057.00;;;5.33;100.00
54978;BME280;40873;47.522;19.106;2023-04-09T06:42:42;101053.34;;;5.40;100.00
54978;BME280;40873;47.522;19.106;2023-04-09T06:45:09;101052.25;;;5.47;100.00
54978;BME280;40873;47.522;19.106;2023-04-09T06:47:36;101055.56;;;5.54;100.00
54978;BME280;40873;47.522;19.106;2023-04-09T06:50:04;101052.72;;;5.62;100.00
54978;BME280;40873;47.522;19.106;2023-04-09T06:52:32;101059.59;;;5.66;100.00
54978;BME280;40873;47.522;19.106;2023-04-09T06:54:59;101062.09;;;5.70;100.00
54978;BME280;40873;47.522;19.106;2023-04-09T06:57:26;101066.38;;;5.73;100.00
54978;BME280;40873;47.522;19.106;2023-04-09T06:59:53;101070.59;;;5.77;100.00
54978;BME280;40873;47.522;19.106;2023-04-09T07:02:20;101066.25;;;5.77;100.00
54978;BME280;40873;47.522;19.106;2023-04-09T07:04:47;101061.81;;;5.80;100.00
54978;BME280;40873;47.522;19.106;2023-04-09T07:07:14;101072.34;;;5.78;100.00
54978;BME280;40873;47.522;19.106;2023-04-09T07:09:43;101075.72;;;5.82;100.00
54978;BME280;40873;47.522;19.106;2023-04-09T07:12:10;101082.50;;;5.89;100.00
54978;BME280;40873;47.522;19.106;2023-04-09T07:14:37;101077.22;;;5.92;100.00
54978;BME280;40873;47.522;19.106;2023-04-09T07:17:04;101085.78;;;5.97;100.00
54978;BME280;40873;47.522;19.106;2023-04-09T07:19:31;101079.44;;;6.04;100.00
54978;BME280;40873;47.522;19.106;2023-04-09T07:21:58;101084.66;;;6.06;100.00
54978;BME280;40873;47.522;19.106;2023-04-09T07:24:24;101092.31;;;6.12;100.00
54978;BME280;40873;47.522;19.106;2023-04-09T07:26:51;101089.66;;;6.13;100.00
54978;BME280;40873;47.522;19.106;2023-04-09T07:29:19;101085.84;;;6.23;100.00
54978;BME280;40873;47.522;19.106;2023-04-09T07:31:48;101096.28;;;6.25;100.00
54978;BME280;40873;47.522;19.106;2023-04-09T07:34:15;101090.09;;;6.27;100.00
54978;BME280;40873;47.522;19.106;2023-04-09T07:36:42;101094.06;;;6.41;100.00
54978;BME280;40873;47.522;19.106;2023-04-09T07:39:09;101085.91;;;6.50;100.00
54978;BME280;40873;47.522;19.106;2023-04-09T07:41:36;101092.56;;;6.60;100.00
54978;BME280;40873;47.522;19.106;2023-04-09T07:44:03;101086.13;;;6.70;100.00
54978;BME280;40873;47.522;19.106;2023-04-09T07:46:32;101087.50;;;6.80;100.00
54978;BME280;40873;47.522;19.106;2023-04-09T07:48:59;101099.25;;;6.95;100.00
54978;BME280;40873;47.522;19.106;2023-04-09T07:51:26;101093.88;;;7.00;100.00
54978;BME280;40873;47.522;19.106;2023-04-09T07:53:53;101094.91;;;6.96;100.00
54978;BME280;40873;47.522;19.106;2023-04-09T07:56:20;101084.69;;;7.13;100.00
54978;BME280;40873;47.522;19.106;2023-04-09T07:58:47;101100.09;;;7.22;99.33
54978;BME280;40873;47.522;19.106;2023-04-09T08:01:15;101097.38;;;7.25;98.79
54978;BME280;40873;47.522;19.106;2023-04-09T08:03:42;101089.94;;;7.13;98.74
54978;BME280;40873;47.522;19.106;2023-04-09T08:06:10;101092.06;;;7.27;100.00
54978;BME280;40873;47.522;19.106;2023-04-09T08:08:36;101099.75;;;7.33;100.00
54978;BME280;40873;47.522;19.106;2023-04-09T08:11:04;101095.06;;;7.41;100.00
54978;BME280;40873;47.522;19.106;2023-04-09T08:13:31;101099.19;;;7.48;100.00
54978;BME280;40873;47.522;19.106;2023-04-09T08:16:01;101096.22;;;7.57;100.00
54978;BME280;40873;47.522;19.106;2023-04-09T08:18:30;101097.56;;;7.69;98.28
54978;BME280;40873;47.522;19.106;2023-04-09T08:20:57;101105.94;;;7.79;97.48
54978;BME280;40873;47.522;19.106;2023-04-09T08:23:24;101103.09;;;7.85;99.13
54978;BME280;40873;47.522;19.106;2023-04-09T08:25:51;101105.78;;;7.83;97.66
54978;BME280;40873;47.522;19.106;2023-04-09T08:28:18;101109.13;;;7.88;97.45
54978;BME280;40873;47.522;19.106;2023-04-09T08:30:45;101110.63;;;7.70;99.73
54978;BME280;40873;47.522;19.106;2023-04-09T08:33:13;101110.03;;;7.87;100.00
54978;BME280;40873;47.522;19.106;2023-04-09T08:35:40;101118.41;;;7.97;96.38
54978;BME280;40873;47.522;19.106;2023-04-09T08:38:08;101108.88;;;7.94;95.29
54978;BME280;40873;47.522;19.106;2023-04-09T08:40:35;101108.53;;;8.04;98.18
54978;BME280;40873;47.522;19.106;2023-04-09T08:43:06;101118.25;;;8.02;93.00
54978;BME280;40873;47.522;19.106;2023-04-09T08:45:34;101117.09;;;8.09;96.19
54978;BME280;40873;47.522;19.106;2023-04-09T08:48:02;101120.91;;;8.23;94.41
54978;BME280;40873;47.522;19.106;2023-04-09T08:50:30;101122.41;;;8.31;95.57
54978;BME280;40873;47.522;19.106;2023-04-09T08:53:00;101119.09;;;8.49;95.83
54978;BME280;40873;47.522;19.106;2023-04-09T08:55:28;101120.28;;;8.62;95.16
54978;BME280;40873;47.522;19.106;2023-04-09T08:57:56;101129.72;;;8.68;92.02
54978;BME280;40873;47.522;19.106;2023-04-09T09:00:24;101125.63;;;8.61;92.86
54978;BME280;40873;47.522;19.106;2023-04-09T09:03:08;101130.28;;;8.54;95.32
54978;BME280;40873;47.522;19.106;2023-04-09T09:05:43;101129.34;;;8.55;92.73
54978;BME280;40873;47.522;19.106;2023-04-09T09:08:12;101138.59;;;8.65;92.25
54978;BME280;40873;47.522;19.106;2023-04-09T09:10:44;101129.84;;;8.65;92.13
54978;BME280;40873;47.522;19.106;2023-04-09T09:15:44;101134.13;;;8.67;91.86
54978;BME280;40873;47.522;19.106;2023-04-09T09:18:13;101135.28;;;8.82;92.34
54978;BME280;40873;47.522;19.106;2023-04-09T09:20:40;101140.59;;;9.02;89.61
54978;BME280;40873;47.522;19.106;2023-04-09T09:23:07;101132.09;;;8.74;90.19
54978;BME280;40873;47.522;19.106;2023-04-09T09:25:38;101137.63;;;8.68;88.43
54978;BME280;40873;47.522;19.106;2023-04-09T09:28:10;101132.59;;;8.62;87.91
54978;BME280;40873;47.522;19.106;2023-04-09T09:30:38;101134.06;;;8.69;90.04
54978;BME280;40873;47.522;19.106;2023-04-09T09:33:08;101133.03;;;8.73;92.29
54978;BME280;40873;47.522;19.106;2023-04-09T09:35:46;101143.31;;;8.57;90.38
54978;BME280;40873;47.522;19.106;2023-04-09T09:38:14;101134.44;;;8.60;92.88
54978;BME280;40873;47.522;19.106;2023-04-09T09:40:42;101134.56;;;8.57;90.20
54978;BME280;40873;47.522;19.106;2023-04-09T09:43:09;101130.88;;;8.39;89.66
54978;BME280;40873;47.522;19.106;2023-04-09T09:45:40;101130.03;;;8.38;90.64
54978;BME280;40873;47.522;19.106;2023-04-09T09:48:09;101134.75;;;8.29;92.92
54978;BME280;40873;47.522;19.106;2023-04-09T09:50:38;101136.84;;;8.19;92.68
54978;BME280;40873;47.522;19.106;2023-04-09T09:53:09;101131.50;;;8.22;93.28
54978;BME280;40873;47.522;19.106;2023-04-09T09:55:42;101129.59;;;8.25;92.18
54978;BME280;40873;47.522;19.106;2023-04-09T09:58:18;101129.22;;;8.36;92.43
54978;BME280;40873;47.522;19.106;2023-04-09T10:00:45;101114.31;;;8.37;95.49
54978;BME280;40873;47.522;19.106;2023-04-09T10:03:24;101125.63;;;8.39;94.75
54978;BME280;40873;47.522;19.106;2023-04-09T10:05:51;101119.19;;;8.46;92.58
54978;BME280;40873;47.522;19.106;2023-04-09T10:08:20;101122.59;;;8.49;93.47
54978;BME280;40873;47.522;19.106;2023-04-09T10:10:49;101120.19;;;8.43;91.77
54978;BME280;40873;47.522;19.106;2023-04-09T10:13:40;101122.34;;;8.56;91.13
54978;BME280;40873;47.522;19.106;2023-04-09T10:16:09;101124.22;;;8.52;92.04
54978;BME280;40873;47.522;19.106;2023-04-09T10:18:36;101126.44;;;8.63;89.97
54978;BME280;40873;47.522;19.106;2023-04-09T10:23:43;101118.34;;;8.67;92.61
54978;BME280;40873;47.522;19.106;2023-04-09T10:26:10;101120.25;;;8.64;89.88
54978;BME280;40873;47.522;19.106;2023-04-09T10:28:37;101121.84;;;8.68;91.58
54978;BME280;40873;47.522;19.106;2023-04-09T10:31:05;101124.34;;;8.93;91.61
54978;BME280;40873;47.522;19.106;2023-04-09T10:33:35;101123.59;;;8.89;90.33
54978;BME280;40873;47.522;19.106;2023-04-09T10:36:06;101119.53;;;9.02;88.89
54978;BME280;40873;47.522;19.106;2023-04-09T10:38:45;101120.03;;;9.12;89.33
54978;BME280;40873;47.522;19.106;2023-04-09T10:41:15;101118.97;;;9.37;89.82
54978;BME280;40873;47.522;19.106;2023-04-09T10:43:46;101123.28;;;9.58;87.84
54978;BME280;40873;47.522;19.106;2023-04-09T10:46:30;101123.13;;;9.42;85.86
54978;BME280;40873;47.522;19.106;2023-04-09T10:49:16;101122.44;;;9.57;85.57
54978;BME280;40873;47.522;19.106;2023-04-09T10:52:08;101117.75;;;9.64;85.68
54978;BME280;40873;47.522;19.106;2023-04-09T10:54:43;101116.84;;;9.24;84.23
54978;BME280;40873;47.522;19.106;2023-04-09T10:57:13;101115.34;;;9.19;84.55
54978;BME280;40873;47.522;19.106;2023-04-09T10:59:45;101113.91;;;9.32;85.48
54978;BME280;40873;47.522;19.106;2023-04-09T11:05:25;101116.56;;;9.32;84.15
54978;BME280;40873;47.522;19.106;2023-04-09T11:08:01;101111.91;;;9.37;85.84
54978;BME280;40873;47.522;19.106;2023-04-09T11:10:29;101113.59;;;9.40;87.54
54978;BME280;40873;47.522;19.106;2023-04-09T11:12:56;101116.91;;;9.23;87.62
54978;BME280;40873;47.522;19.106;2023-04-09T11:15:23;101112.41;;;9.26;88.14
54978;BME280;40873;47.522;19.106;2023-04-09T11:17:51;101112.91;;;9.14;88.29
54978;BME280;40873;47.522;19.106;2023-04-09T11:20:23;101105.69;;;9.19;86.13
54978;BME280;40873;47.522;19.106;2023-04-09T11:22:51;101113.63;;;8.97;85.58
54978;BME280;40873;47.522;19.106;2023-04-09T11:25:27;101109.22;;;8.98;86.27
54978;BME280;40873;47.522;19.106;2023-04-09T11:27:54;101102.72;;;9.06;86.46
54978;BME280;40873;47.522;19.106;2023-04-09T11:30:21;101109.28;;;9.17;87.21
54978;BME280;40873;47.522;19.106;2023-04-09T11:32:49;101103.16;;;9.16;85.85
54978;BME280;40873;47.522;19.106;2023-04-09T11:35:18;101111.47;;;9.07;85.26
54978;BME280;40873;47.522;19.106;2023-04-09T11:37:46;101107.13;;;9.26;86.43
54978;BME280;40873;47.522;19.106;2023-04-09T11:40:21;101109.09;;;9.42;87.69
54978;BME280;40873;47.522;19.106;2023-04-09T11:42:50;101102.44;;;9.53;85.48
54978;BME280;40873;47.522;19.106;2023-04-09T11:45:22;101102.47;;;9.72;85.42
54978;BME280;40873;47.522;19.106;2023-04-09T11:47:50;101103.91;;;9.79;82.71
54978;BME280;40873;47.522;19.106;2023-04-09T11:50:18;101104.19;;;9.92;81.44
54978;BME280;40873;47.522;19.106;2023-04-09T11:52:46;101103.00;;;9.99;81.06
54978;BME280;40873;47.522;19.106;2023-04-09T11:55:25;101107.72;;;10.11;80.68
54978;BME280;40873;47.522;19.106;2023-04-09T11:57:56;101110.16;;;10.16;78.40
54978;BME280;40873;47.522;19.106;2023-04-09T12:00:23;101112.94;;;10.32;80.11
54978;BME280;40873;47.522;19.106;2023-04-09T12:02:59;101104.81;;;10.36;79.26
54978;BME280;40873;47.522;19.106;2023-04-09T12:05:28;101107.38;;;10.38;75.77
54978;BME280;40873;47.522;19.106;2023-04-09T12:07:58;101105.63;;;10.56;74.95
54978;BME280;40873;47.522;19.106;2023-04-09T12:10:28;101106.16;;;10.64;74.17
54978;BME280;40873;47.522;19.106;2023-04-09T12:13:05;101092.44;;;10.92;75.81
54978;BME280;40873;47.522;19.106;2023-04-09T12:15:34;101096.78;;;10.93;73.64
54978;BME280;40873;47.522;19.106;2023-04-09T12:18:01;101096.78;;;10.57;74.61
54978;BME280;40873;47.522;19.106;2023-04-09T12:22:58;101087.31;;;11.41;69.56
54978;BME280;40873;47.522;19.106;2023-04-09T12:25:26;101085.00;;;12.32;70.50
54978;BME280;40873;47.522;19.106;2023-04-09T12:27:54;101087.16;;;12.10;66.00
54978;BME280;40873;47.522;19.106;2023-04-09T12:30:22;101085.09;;;12.31;65.42
54978;BME280;40873;47.522;19.106;2023-04-09T12:32:51;101074.34;;;13.54;64.61
54978;BME280;40873;47.522;19.106;2023-04-09T12:35:18;101080.38;;;13.42;65.68
54978;BME280;40873;47.522;19.106;2023-04-09T12:37:45;101072.28;;;13.74;62.58
54978;BME280;40873;47.522;19.106;2023-04-09T12:40:12;101070.56;;;13.87;60.85
54978;BME280;40873;47.522;19.106;2023-04-09T12:42:43;101073.25;;;14.28;61.57
54978;BME280;40873;47.522;19.106;2023-04-09T12:45:13;101065.78;;;14.20;60.38
54978;BME280;40873;47.522;19.106;2023-04-09T12:47:41;101071.31;;;13.60;60.48
54978;BME280;40873;47.522;19.106;2023-04-09T12:50:10;101067.16;;;14.40;59.90
54978;BME280;40873;47.522;19.106;2023-04-09T12:52:38;101068.56;;;14.46;59.90
54978;BME280;40873;47.522;19.106;2023-04-09T12:55:05;101065.16;;;13.46;61.17
54978;BME280;40873;47.522;19.106;2023-04-09T12:57:33;101064.34;;;13.15;61.32
54978;BME280;40873;47.522;19.106;2023-04-09T13:00:00;101078.38;;;12.87;65.04
54978;BME280;40873;47.522;19.106;2023-04-09T13:02:27;101069.28;;;12.61;64.92
54978;BME280;40873;47.522;19.106;2023-04-09T13:04:54;101059.19;;;12.68;64.03
54978;BME280;40873;47.522;19.106;2023-04-09T13:07:21;101062.63;;;13.14;62.11